Time;durP1;ratioP1;P1;durP2;ratioP2;P2;SDS_P1;SDS_P2;PMS_P1;PMS_P2;Temp;Humidity;BMP_temperature;BMP_pressure;BME280_temperature;BME280_humidity;BME280_pressure;Samples;Min_cycle;Max_cycle;Signal;HPM_P1;HPM_P2
2024/02/21 00:02:13;;;;;;;0.65;0.52;;;10.20;99.90;;;;;;5041674;28;20316;-85
2024/02/21 00:04:43;;;;;;;1.83;0.68;;;10.10;99.90;;;;;;5040554;28;20052;-84
2024/02/21 00:07:10;;;;;;;1.00;0.63;;;10.10;99.90;;;;;;5016610;28;20055;-85
2024/02/21 00:09:36;;;;;;;2.20;0.80;;;10.10;99.90;;;;;;5026526;28;20462;-84
2024/02/21 00:12:05;;;;;;;1.00;0.70;;;10.10;99.90;;;;;;5027567;28;20049;-85
2024/02/21 00:14:34;;;;;;;0.93;0.80;;;10.20;99.90;;;;;;5039290;28;20106;-84
2024/02/21 00:17:01;;;;;;;0.80;0.52;;;10.20;99.90;;;;;;5049889;28;20457;-84
2024/02/21 00:19:29;;;;;;;2.40;0.73;;;10.20;99.90;;;;;;5048351;28;20136;-85
2024/02/21 00:21:56;;;;;;;0.82;0.65;;;10.20;99.90;;;;;;5047307;28;20125;-84
2024/02/21 00:24:24;;;;;;;1.13;0.75;;;10.20;99.90;;;;;;5042844;28;20099;-84
2024/02/21 00:26:54;;;;;;;0.60;0.40;;;10.20;99.90;;;;;;5008478;28;20459;-85
2024/02/21 00:29:21;;;;;;;1.17;0.70;;;10.20;99.90;;;;;;5026507;28;20049;-84
2024/02/21 00:31:49;;;;;;;1.20;0.82;;;10.20;99.90;;;;;;5011628;28;20052;-84
2024/02/21 00:34:17;;;;;;;1.42;0.70;;;10.20;99.90;;;;;;5037465;28;20056;-86
2024/02/21 00:36:44;;;;;;;1.05;0.93;;;10.20;99.90;;;;;;5048404;28;20049;-84
2024/02/21 00:39:11;;;;;;;0.70;0.50;;;10.20;99.90;;;;;;5048728;28;20098;-84
2024/02/21 00:41:38;;;;;;;0.98;0.60;;;10.20;99.90;;;;;;5046475;28;20136;-85
2024/02/21 00:44:12;;;;;;;1.02;0.57;;;10.30;99.90;;;;;;5043462;28;20063;-84
2024/02/21 00:46:41;;;;;;;1.30;0.50;;;10.30;99.90;;;;;;5028020;28;20419;-84
2024/02/21 00:49:14;;;;;;;1.52;0.70;;;10.30;99.90;;;;;;5028615;28;20099;-83
2024/02/21 00:51:40;;;;;;;2.22;0.70;;;10.30;99.90;;;;;;5011824;28;20046;-84
2024/02/21 00:54:07;;;;;;;1.63;0.60;;;10.30;99.90;;;;;;5034894;28;20064;-83
2024/02/21 00:56:35;;;;;;;1.30;0.50;;;10.20;99.90;;;;;;5047405;28;20049;-85
2024/02/21 00:59:03;;;;;;;1.75;0.77;;;10.20;99.90;;;;;;5048001;28;20064;-85
2024/02/21 01:01:30;;;;;;;1.00;0.70;;;10.20;99.90;;;;;;5026687;28;20107;-84
2024/02/21 01:03:58;;;;;;;3.20;0.80;;;10.20;99.90;;;;;;5025278;28;20052;-85
2024/02/21 01:06:25;;;;;;;1.35;0.80;;;10.20;99.90;;;;;;5044320;28;20136;-84
2024/02/21 01:08:52;;;;;;;0.50;0.50;;;10.20;99.90;;;;;;5048557;28;20041;-85
2024/02/21 01:11:22;;;;;;;0.80;0.45;;;10.20;99.90;;;;;;5030007;28;20487;-85
2024/02/21 01:13:51;;;;;;;1.00;0.60;;;10.20;99.90;;;;;;5047175;28;20487;-83
2024/02/21 01:16:19;;;;;;;1.83;0.80;;;10.20;99.90;;;;;;5029060;28;20057;-85
2024/02/21 01:18:46;;;;;;;1.75;0.60;;;10.20;99.90;;;;;;5011490;28;20064;-85
2024/02/21 01:21:13;;;;;;;1.80;0.60;;;10.20;99.90;;;;;;5027503;28;20054;-85
2024/02/21 01:23:40;;;;;;;2.95;0.80;;;10.20;99.90;;;;;;5030357;28;20045;-85
2024/02/21 01:26:08;;;;;;;2.22;0.63;;;10.20;99.90;;;;;;5029335;28;20049;-86
2024/02/21 01:28:35;;;;;;;1.27;0.70;;;10.10;99.90;;;;;;5024446;28;20069;-85
2024/02/21 01:31:03;;;;;;;2.45;0.73;;;10.10;99.90;;;;;;5035534;28;20045;-85
2024/02/21 01:33:34;;;;;;;0.65;0.50;;;10.10;99.90;;;;;;5027306;28;20053;-84
2024/02/21 01:36:02;;;;;;;1.42;0.57;;;10.20;99.90;;;;;;5024471;28;20056;-84
2024/02/21 01:38:30;;;;;;;0.90;0.70;;;10.10;99.90;;;;;;5008341;28;20049;-84
2024/02/21 01:40:58;;;;;;;1.35;0.55;;;10.10;99.90;;;;;;5025734;28;20146;-84
2024/02/21 01:43:26;;;;;;;2.15;0.60;;;10.10;99.90;;;;;;5047626;28;20048;-83
2024/02/21 01:45:55;;;;;;;2.05;0.90;;;10.10;99.90;;;;;;5030143;28;20136;-84
2024/02/21 01:48:22;;;;;;;2.30;0.80;;;10.10;99.90;;;;;;5047142;28;20049;-85
2024/02/21 01:50:49;;;;;;;2.78;0.90;;;10.10;99.90;;;;;;5029129;28;20157;-84
2024/02/21 01:53:30;;;;;;;2.35;0.90;;;10.10;99.90;;;;;;5038033;28;20046;-84
2024/02/21 01:56:06;;;;;;;1.30;0.55;;;10.10;99.90;;;;;;5039182;28;20408;-84
2024/02/21 01:58:36;;;;;;;0.63;0.35;;;10.10;99.90;;;;;;5043152;28;20049;-85
2024/02/21 02:01:03;;;;;;;1.25;0.50;;;10.20;99.90;;;;;;5011004;28;20106;-84
2024/02/21 02:03:31;;;;;;;1.48;0.50;;;10.20;99.90;;;;;;5041199;28;20045;-84
2024/02/21 02:05:58;;;;;;;0.77;0.50;;;10.20;99.90;;;;;;5043168;28;20690;-85
2024/02/21 02:08:26;;;;;;;3.30;1.27;;;10.20;99.90;;;;;;5028007;28;20107;-84
2024/02/21 02:10:55;;;;;;;1.40;0.70;;;10.20;99.90;;;;;;5012588;28;20056;-83
2024/02/21 02:13:25;;;;;;;1.75;1.10;;;10.20;99.90;;;;;;5045517;28;20049;-84
2024/02/21 02:15:53;;;;;;;1.55;0.88;;;10.20;99.90;;;;;;5029812;28;20404;-84
2024/02/21 02:18:20;;;;;;;3.05;1.42;;;10.20;99.90;;;;;;5046961;28;20385;-84
2024/02/21 02:20:47;;;;;;;1.60;0.65;;;10.20;99.90;;;;;;5029316;28;20057;-84
2024/02/21 02:23:31;;;;;;;0.65;0.52;;;10.20;99.90;;;;;;5045775;28;20052;-84
2024/02/21 02:26:03;;;;;;;2.60;0.98;;;10.20;99.90;;;;;;4998395;28;20140;-85
2024/02/21 02:28:31;;;;;;;1.75;0.70;;;10.20;99.90;;;;;;5010037;28;20045;-84
2024/02/21 02:31:00;;;;;;;1.67;0.80;;;10.20;99.90;;;;;;5033841;28;20060;-85
2024/02/21 02:33:30;;;;;;;2.20;0.70;;;10.20;99.90;;;;;;5031382;28;20049;-83
2024/02/21 02:35:59;;;;;;;0.70;0.60;;;10.20;99.90;;;;;;5048127;28;20198;-85
2024/02/21 02:38:26;;;;;;;0.75;0.57;;;10.20;99.90;;;;;;5048348;28;20052;-85
2024/02/21 02:40:54;;;;;;;2.00;0.90;;;10.20;99.90;;;;;;5038862;28;20107;-85
2024/02/21 02:43:22;;;;;;;1.15;0.63;;;10.20;99.90;;;;;;5036862;28;20049;-84
2024/02/21 02:45:49;;;;;;;0.85;0.65;;;10.30;99.90;;;;;;5045443;28;20152;-84
2024/02/21 02:48:16;;;;;;;3.10;0.88;;;10.30;99.90;;;;;;5028951;28;20049;-85
2024/02/21 02:50:45;;;;;;;1.00;0.70;;;10.20;99.90;;;;;;5044789;28;20041;-83
2024/02/21 02:53:12;;;;;;;1.83;1.00;;;10.30;99.90;;;;;;5045207;28;20594;-83
2024/02/21 02:55:39;;;;;;;1.23;0.80;;;10.30;99.90;;;;;;5044109;28;20062;-84
2024/02/21 02:58:08;;;;;;;1.52;0.70;;;10.30;99.90;;;;;;5044950;28;20136;-83
2024/02/21 03:00:36;;;;;;;0.98;0.70;;;10.30;99.90;;;;;;5028415;28;20859;-85
2024/02/21 03:03:08;;;;;;;1.90;0.70;;;10.30;99.90;;;;;;5041203;28;20103;-84
2024/02/21 03:05:36;;;;;;;1.63;0.93;;;10.20;99.90;;;;;;5018415;28;20103;-83
2024/02/21 03:08:06;;;;;;;5.97;1.08;;;10.20;99.90;;;;;;5011380;28;20053;-84
2024/02/21 03:10:34;;;;;;;1.77;1.10;;;10.20;99.90;;;;;;5011375;28;20053;-84
2024/02/21 03:13:01;;;;;;;1.95;0.77;;;10.20;99.90;;;;;;5033948;28;20068;-85
2024/02/21 03:15:29;;;;;;;2.58;0.85;;;10.20;99.90;;;;;;5031790;28;20084;-84
2024/02/21 03:17:57;;;;;;;1.75;1.00;;;10.20;99.90;;;;;;5048349;28;20052;-84
2024/02/21 03:20:25;;;;;;;1.73;0.82;;;10.20;99.90;;;;;;5049094;28;20593;-83
2024/02/21 03:22:53;;;;;;;3.05;0.70;;;10.20;99.90;;;;;;5048161;28;20053;-85
2024/02/21 03:25:20;;;;;;;1.83;0.90;;;10.20;99.90;;;;;;5038330;28;20046;-84
2024/02/21 03:27:48;;;;;;;1.55;0.82;;;10.20;99.90;;;;;;5027499;28;20058;-84
2024/02/21 03:30:15;;;;;;;2.75;1.17;;;10.20;99.90;;;;;;5029416;28;20045;-83
2024/02/21 03:32:42;;;;;;;1.52;0.85;;;10.20;99.90;;;;;;5030598;28;20697;-84
2024/02/21 03:35:11;;;;;;;2.42;1.20;;;10.20;99.90;;;;;;5048355;28;20071;-84
2024/02/21 03:37:40;;;;;;;1.70;1.00;;;10.10;99.90;;;;;;5031454;28;20064;-84
2024/02/21 03:40:10;;;;;;;1.90;0.80;;;10.10;99.90;;;;;;5048069;28;20720;-84
2024/02/21 03:42:38;;;;;;;1.63;1.02;;;10.10;99.90;;;;;;5048600;28;20053;-83
2024/02/21 03:45:06;;;;;;;1.55;0.80;;;10.10;99.90;;;;;;5048195;28;20056;-83
2024/02/21 03:47:34;;;;;;;1.45;0.63;;;10.10;99.90;;;;;;5047937;28;20383;-83
2024/02/21 03:50:01;;;;;;;0.80;0.70;;;10.10;99.90;;;;;;5031589;28;20100;-85
2024/02/21 03:52:28;;;;;;;0.95;0.60;;;10.10;99.90;;;;;;5047649;28;20471;-84
2024/02/21 03:54:56;;;;;;;1.02;0.70;;;10.10;99.90;;;;;;5014951;28;20447;-84
2024/02/21 03:57:24;;;;;;;1.85;0.60;;;10.10;99.90;;;;;;5011052;28;20403;-85
2024/02/21 03:59:52;;;;;;;2.00;0.85;;;10.10;99.90;;;;;;5027924;28;20054;-84
2024/02/21 04:02:20;;;;;;;1.65;0.80;;;10.10;99.90;;;;;;5027302;28;20085;-85
2024/02/21 04:04:47;;;;;;;2.05;0.60;;;10.10;99.90;;;;;;5028877;28;20522;-84
2024/02/21 04:07:16;;;;;;;1.15;0.80;;;10.10;99.90;;;;;;5031170;28;20467;-84
2024/02/21 04:09:43;;;;;;;1.00;0.77;;;10.10;99.90;;;;;;5048709;28;20052;-84
2024/02/21 04:12:09;;;;;;;1.15;0.82;;;10.10;99.90;;;;;;5046789;28;20053;-84
2024/02/21 04:14:36;;;;;;;0.60;0.57;;;10.10;99.90;;;;;;5049068;28;20106;-83
2024/02/21 04:17:05;;;;;;;0.95;0.47;;;10.10;99.90;;;;;;5047912;28;20040;-85
2024/02/21 04:19:33;;;;;;;1.23;0.80;;;10.10;99.90;;;;;;5031236;28;20087;-85
2024/02/21 04:22:02;;;;;;;1.45;0.60;;;10.00;99.90;;;;;;5047332;28;20052;-84
2024/02/21 04:24:30;;;;;;;1.05;0.63;;;10.00;99.90;;;;;;5048855;28;20041;-84
2024/02/21 04:27:00;;;;;;;0.98;0.63;;;10.00;99.90;;;;;;5048152;28;20663;-84
2024/02/21 04:29:31;;;;;;;0.60;0.60;;;10.00;99.90;;;;;;5031452;28;20127;-83
2024/02/21 04:31:58;;;;;;;0.88;0.70;;;10.00;99.90;;;;;;5048121;28;20059;-83
2024/02/21 04:34:25;;;;;;;1.13;0.68;;;10.00;99.90;;;;;;5047271;28;20056;-84
2024/02/21 04:36:52;;;;;;;1.13;0.85;;;9.90;99.90;;;;;;5047794;28;20198;-83
2024/02/21 04:39:21;;;;;;;1.70;0.80;;;9.90;99.90;;;;;;5048085;28;20056;-83
2024/02/21 04:41:50;;;;;;;0.95;0.52;;;9.90;99.90;;;;;;5046515;28;20102;-84
2024/02/21 04:44:17;;;;;;;0.45;0.45;;;9.90;99.90;;;;;;5046525;28;20053;-84
2024/02/21 04:46:43;;;;;;;0.70;0.60;;;9.90;99.90;;;;;;5030560;28;20053;-84
2024/02/21 04:49:11;;;;;;;1.10;0.70;;;9.90;99.90;;;;;;5013811;28;20049;-84
2024/02/21 04:51:40;;;;;;;0.35;0.35;;;9.90;99.90;;;;;;5046496;28;20057;-83
2024/02/21 04:54:07;;;;;;;0.47;0.45;;;9.90;99.90;;;;;;5045303;28;20128;-82
2024/02/21 04:56:34;;;;;;;1.65;0.80;;;9.90;99.90;;;;;;5026425;28;20128;-84
2024/02/21 04:59:01;;;;;;;1.38;0.80;;;9.90;99.90;;;;;;5025457;28;20073;-84
2024/02/21 05:01:28;;;;;;;1.00;0.60;;;9.90;99.90;;;;;;5025608;28;20555;-83
2024/02/21 05:03:55;;;;;;;1.40;0.70;;;9.90;99.90;;;;;;5034637;28;20049;-84
2024/02/21 05:06:24;;;;;;;0.95;0.57;;;9.80;99.90;;;;;;5046037;28;20088;-84
2024/02/21 05:08:51;;;;;;;1.25;0.63;;;9.80;99.90;;;;;;5029816;28;20522;-84
2024/02/21 05:11:17;;;;;;;0.38;0.38;;;9.80;99.90;;;;;;5029364;28;20053;-84
2024/02/21 05:13:45;;;;;;;1.00;0.55;;;9.80;99.90;;;;;;5047955;28;20075;-83
2024/02/21 05:16:12;;;;;;;0.50;0.50;;;9.80;99.90;;;;;;5047398;28;20041;-83
2024/02/21 05:18:40;;;;;;;0.80;0.60;;;9.80;99.90;;;;;;5030124;28;20408;-84
2024/02/21 05:21:08;;;;;;;1.65;0.70;;;9.80;99.90;;;;;;5046133;28;20060;-84
2024/02/21 05:23:36;;;;;;;0.95;0.65;;;9.80;99.90;;;;;;5046817;28;20057;-84
2024/02/21 05:26:04;;;;;;;0.98;0.60;;;9.80;99.90;;;;;;5046428;28;20059;-84
2024/02/21 05:28:31;;;;;;;1.25;0.63;;;9.80;99.90;;;;;;5046945;28;20051;-84
2024/02/21 05:30:59;;;;;;;1.02;0.52;;;9.80;99.90;;;;;;5029920;28;20052;-84
2024/02/21 05:33:26;;;;;;;0.50;0.47;;;9.80;99.90;;;;;;5045321;28;20084;-84
2024/02/21 05:35:53;;;;;;;1.30;0.70;;;9.80;99.90;;;;;;5045695;28;20049;-84
2024/02/21 05:38:20;;;;;;;0.90;0.68;;;9.80;99.90;;;;;;5046131;28;20060;-84
2024/02/21 05:40:47;;;;;;;0.40;0.40;;;9.80;99.90;;;;;;5046729;28;20068;-84
2024/02/21 05:43:15;;;;;;;1.45;0.77;;;9.80;99.90;;;;;;5027080;28;20135;-84
2024/02/21 05:45:42;;;;;;;1.38;0.70;;;9.80;99.90;;;;;;5027167;28;20543;-84
2024/02/21 05:48:10;;;;;;;0.57;0.57;;;9.80;99.90;;;;;;5026684;28;20198;-83
2024/02/21 05:50:37;;;;;;;0.75;0.55;;;9.80;99.90;;;;;;5025944;28;20096;-84
2024/02/21 05:53:05;;;;;;;0.45;0.45;;;9.80;99.90;;;;;;5024525;28;20452;-83
2024/02/21 05:55:33;;;;;;;1.02;0.70;;;9.80;99.90;;;;;;5028815;28;20554;-83
2024/02/21 05:58:02;;;;;;;0.52;0.52;;;9.80;99.90;;;;;;5023744;28;20045;-84
2024/02/21 06:00:30;;;;;;;0.40;0.38;;;9.80;99.90;;;;;;5027185;28;20056;-82
2024/02/21 06:02:59;;;;;;;0.65;0.50;;;9.70;99.90;;;;;;5032936;28;20049;-84
2024/02/21 06:05:27;;;;;;;2.17;0.63;;;9.70;99.90;;;;;;5018359;28;20048;-86
2024/02/21 06:07:55;;;;;;;1.20;0.60;;;9.60;99.90;;;;;;5029587;28;20558;-83
2024/02/21 06:10:24;;;;;;;0.55;0.50;;;9.60;99.90;;;;;;5030172;28;20068;-86
2024/02/21 06:12:52;;;;;;;0.75;0.60;;;9.50;99.90;;;;;;5032573;28;20959;-83
2024/02/21 06:15:27;;;;;;;0.65;0.63;;;9.50;99.90;;;;;;5031968;28;20487;-83
2024/02/21 06:17:55;;;;;;;0.52;0.50;;;9.50;99.90;;;;;;5031420;28;20130;-84
2024/02/21 06:20:22;;;;;;;1.20;0.63;;;9.50;99.90;;;;;;5015103;28;20503;-84
2024/02/21 06:22:49;;;;;;;1.08;0.60;;;9.40;99.90;;;;;;5026970;28;20148;-81
2024/02/21 06:25:16;;;;;;;0.60;0.50;;;9.40;99.90;;;;;;5027514;28;20694;-82
2024/02/21 06:27:44;;;;;;;0.52;0.50;;;9.40;99.90;;;;;;5027665;28;20119;-85
2024/02/21 06:30:11;;;;;;;0.80;0.40;;;9.40;99.90;;;;;;5014041;28;20052;-86
2024/02/21 06:32:39;;;;;;;0.50;0.50;;;9.40;99.90;;;;;;5017264;28;20830;-87
2024/02/21 06:35:06;;;;;;;0.55;0.40;;;9.40;99.90;;;;;;5029095;28;20252;-86
2024/02/21 06:37:33;;;;;;;1.17;0.60;;;9.40;99.90;;;;;;5011945;28;20049;-84
2024/02/21 06:40:01;;;;;;;0.82;0.52;;;9.40;99.90;;;;;;5037545;28;20043;-84
2024/02/21 06:42:29;;;;;;;1.60;0.38;;;9.30;99.90;;;;;;5031543;28;20088;-85
2024/02/21 06:44:56;;;;;;;1.00;0.40;;;9.40;99.90;;;;;;5032917;28;20057;-85
2024/02/21 06:47:23;;;;;;;0.77;0.60;;;9.30;99.90;;;;;;5030681;28;20065;-84
2024/02/21 06:49:51;;;;;;;0.57;0.57;;;9.30;99.90;;;;;;5016535;28;20514;-84
2024/02/21 06:52:20;;;;;;;0.63;0.57;;;9.30;99.90;;;;;;5027682;28;20137;-84
2024/02/21 06:54:47;;;;;;;0.77;0.57;;;9.30;99.90;;;;;;5043471;28;20049;-84
2024/02/21 06:57:17;;;;;;;0.30;0.30;;;9.30;99.90;;;;;;5034925;28;20073;-84
2024/02/21 06:59:44;;;;;;;0.43;0.43;;;9.30;99.90;;;;;;5029636;28;20054;-81
2024/02/21 07:02:11;;;;;;;0.30;0.20;;;9.30;99.90;;;;;;5027681;28;20053;-82
2024/02/21 07:04:38;;;;;;;0.50;0.50;;;9.30;99.90;;;;;;5024459;28;20091;-82
2024/02/21 07:07:05;;;;;;;0.70;0.50;;;9.40;99.90;;;;;;5033307;28;20059;-81
2024/02/21 07:09:32;;;;;;;0.50;0.50;;;9.40;99.90;;;;;;5029506;28;20042;-84
2024/02/21 07:11:59;;;;;;;0.65;0.50;;;9.30;99.90;;;;;;5044730;28;20192;-84
2024/02/21 07:14:28;;;;;;;0.65;0.50;;;9.40;99.90;;;;;;5046087;28;20056;-84
2024/02/21 07:16:56;;;;;;;0.40;0.40;;;9.40;99.90;;;;;;5043365;28;20517;-84
2024/02/21 07:19:24;;;;;;;0.30;0.30;;;9.40;99.90;;;;;;5026210;28;20128;-81
2024/02/21 07:21:51;;;;;;;0.68;0.50;;;9.40;99.90;;;;;;5008748;28;20076;-82
2024/02/21 07:24:18;;;;;;;0.43;0.40;;;9.30;99.90;;;;;;5036746;28;20045;-83
2024/02/21 07:26:46;;;;;;;0.65;0.47;;;9.40;99.90;;;;;;5022600;28;20115;-81
2024/02/21 07:29:13;;;;;;;0.40;0.40;;;9.40;99.90;;;;;;5031895;28;20049;-81
2024/02/21 07:31:43;;;;;;;0.95;0.50;;;9.40;99.90;;;;;;5044455;28;20067;-80
2024/02/21 07:34:10;;;;;;;0.40;0.40;;;9.30;99.90;;;;;;5044920;28;20064;-82
2024/02/21 07:36:38;;;;;;;0.90;0.63;;;9.40;99.90;;;;;;5007496;28;20053;-82
2024/02/21 07:39:05;;;;;;;1.35;0.55;;;9.40;99.90;;;;;;5012131;28;20045;-82
2024/02/21 07:41:33;;;;;;;0.60;0.60;;;9.30;99.90;;;;;;5038177;28;20054;-82
2024/02/21 07:44:00;;;;;;;0.57;0.50;;;9.40;99.90;;;;;;5025330;28;20111;-80
2024/02/21 07:46:27;;;;;;;0.55;0.50;;;9.30;99.90;;;;;;5027514;28;20049;-83
2024/02/21 07:48:55;;;;;;;0.90;0.60;;;9.30;99.90;;;;;;5033150;28;20143;-81
2024/02/21 07:51:22;;;;;;;1.33;0.63;;;9.30;99.90;;;;;;5030855;28;20046;-81
2024/02/21 07:53:49;;;;;;;1.50;0.50;;;9.40;99.90;;;;;;5043369;28;20638;-82
2024/02/21 07:56:16;;;;;;;1.23;0.60;;;9.30;99.90;;;;;;5032492;28;20053;-81
2024/02/21 07:58:42;;;;;;;1.08;0.60;;;9.40;99.90;;;;;;5044796;28;20052;-81
2024/02/21 08:01:10;;;;;;;1.10;0.68;;;9.40;99.90;;;;;;5036770;28;20579;-81
2024/02/21 08:03:37;;;;;;;0.82;0.50;;;9.40;99.90;;;;;;5025480;28;20054;-81
2024/02/21 08:06:04;;;;;;;0.95;0.60;;;9.40;99.90;;;;;;5029264;28;20061;-83
2024/02/21 08:08:31;;;;;;;1.42;0.70;;;9.40;99.90;;;;;;5021086;28;20053;-82
2024/02/21 08:10:57;;;;;;;0.98;0.52;;;9.40;99.90;;;;;;5026394;28;20175;-81
2024/02/21 08:13:25;;;;;;;0.73;0.60;;;9.50;99.90;;;;;;5027895;28;20053;-82
2024/02/21 08:15:52;;;;;;;0.47;0.47;;;9.50;99.90;;;;;;5032836;28;20053;-82
2024/02/21 08:18:19;;;;;;;0.55;0.40;;;9.50;99.90;;;;;;5029215;28;20157;-82
2024/02/21 08:20:46;;;;;;;0.40;0.40;;;9.50;99.90;;;;;;5035460;28;20053;-82
2024/02/21 08:23:15;;;;;;;1.95;0.88;;;9.50;99.90;;;;;;5026216;28;20834;-82
2024/02/21 08:25:42;;;;;;;1.33;0.57;;;9.50;99.90;;;;;;5043120;28;20049;-82
2024/02/21 08:28:09;;;;;;;1.98;0.60;;;9.60;99.90;;;;;;5023104;28;20136;-82
2024/02/21 08:30:36;;;;;;;0.55;0.55;;;9.60;99.90;;;;;;5042403;28;20053;-82
2024/02/21 08:33:03;;;;;;;0.93;0.60;;;9.60;99.90;;;;;;5037143;28;20115;-82
2024/02/21 08:35:30;;;;;;;0.88;0.70;;;9.60;99.90;;;;;;5044742;28;20040;-81
2024/02/21 08:37:58;;;;;;;3.40;1.00;;;9.70;99.90;;;;;;5030149;28;20053;-83
2024/02/21 08:40:25;;;;;;;1.10;0.60;;;9.70;99.90;;;;;;5024685;28;20068;-81
2024/02/21 08:42:53;;;;;;;0.95;0.60;;;9.70;99.90;;;;;;5035205;28;20105;-81
2024/02/21 08:45:21;;;;;;;1.15;0.80;;;9.70;99.90;;;;;;5028256;28;20423;-83
2024/02/21 08:47:48;;;;;;;1.25;0.82;;;9.70;99.90;;;;;;5041934;28;20103;-81
2024/02/21 08:50:15;;;;;;;0.88;0.82;;;9.70;99.90;;;;;;5044823;28;20048;-82
2024/02/21 08:52:54;;;;;;;0.50;0.50;;;9.70;99.90;;;;;;5015181;28;20045;-82
2024/02/21 08:55:21;;;;;;;0.80;0.43;;;9.70;99.90;;;;;;5031234;28;20060;-81
2024/02/21 08:57:48;;;;;;;1.23;0.80;;;9.80;99.90;;;;;;5025455;28;20136;-81
2024/02/21 09:00:16;;;;;;;0.73;0.65;;;9.80;99.90;;;;;;5017119;28;20052;-82
2024/02/21 09:02:43;;;;;;;0.93;0.60;;;9.80;99.90;;;;;;5034285;28;20069;-82
2024/02/21 09:05:10;;;;;;;1.23;0.73;;;9.80;99.90;;;;;;4999888;28;20052;-82
2024/02/21 09:07:37;;;;;;;1.50;0.70;;;9.80;99.90;;;;;;5017499;28;20140;-83
2024/02/21 09:10:05;;;;;;;1.90;0.60;;;9.80;99.90;;;;;;5026497;28;20148;-83
2024/02/21 09:12:33;;;;;;;0.93;0.65;;;9.90;99.90;;;;;;5017836;28;20049;-83
2024/02/21 09:14:59;;;;;;;1.67;0.80;;;9.90;99.90;;;;;;5033557;28;20126;-83
2024/02/21 09:17:29;;;;;;;0.85;0.60;;;9.90;99.90;;;;;;5036410;28;20521;-82
2024/02/21 09:19:58;;;;;;;1.73;0.80;;;9.90;99.90;;;;;;5028013;28;20635;-82
2024/02/21 09:22:26;;;;;;;1.15;0.60;;;10.00;99.90;;;;;;5005013;28;20088;-82
2024/02/21 09:24:54;;;;;;;1.00;0.50;;;9.90;99.90;;;;;;5032630;28;20068;-82
2024/02/21 09:27:22;;;;;;;1.40;0.70;;;10.00;99.90;;;;;;4998247;28;20207;-82
2024/02/21 09:29:48;;;;;;;2.55;0.80;;;10.00;99.90;;;;;;5023472;28;20609;-82
2024/02/21 09:32:16;;;;;;;1.30;0.50;;;10.00;99.90;;;;;;5030577;28;20063;-83
2024/02/21 09:34:43;;;;;;;1.70;0.88;;;10.00;99.90;;;;;;5032033;28;20510;-82
2024/02/21 09:37:10;;;;;;;1.20;0.60;;;10.10;99.90;;;;;;5018694;28;20575;-82
2024/02/21 09:39:37;;;;;;;0.98;0.82;;;10.10;99.90;;;;;;5027222;28;20053;-83
2024/02/21 09:42:06;;;;;;;0.60;0.50;;;10.10;99.90;;;;;;5033714;28;20107;-84
2024/02/21 09:44:37;;;;;;;1.05;0.85;;;10.10;99.90;;;;;;5036742;28;20073;-81
2024/02/21 09:47:07;;;;;;;1.20;0.65;;;10.10;99.90;;;;;;5037196;28;20564;-81
2024/02/21 09:49:37;;;;;;;0.40;0.30;;;10.20;99.90;;;;;;5012357;28;20464;-82
2024/02/21 09:52:06;;;;;;;0.73;0.70;;;10.20;99.90;;;;;;5020763;28;20410;-84
2024/02/21 09:54:33;;;;;;;0.90;0.60;;;10.20;99.90;;;;;;5037159;28;20463;-83
2024/02/21 09:57:01;;;;;;;1.33;0.55;;;10.20;99.90;;;;;;5027869;28;20521;-83
2024/02/21 09:59:29;;;;;;;0.90;0.35;;;10.10;99.90;;;;;;5020967;28;20601;-81
2024/02/21 10:01:55;;;;;;;0.60;0.57;;;10.10;99.90;;;;;;5025037;28;20041;-81
2024/02/21 10:04:23;;;;;;;1.30;0.80;;;10.10;99.90;;;;;;5029396;28;20045;-81
2024/02/21 10:06:50;;;;;;;1.10;0.55;;;10.10;99.90;;;;;;5020792;28;20049;-81
2024/02/21 10:09:24;;;;;;;0.95;0.65;;;10.20;99.90;;;;;;5029526;28;20510;-82
2024/02/21 10:11:51;;;;;;;0.63;0.50;;;10.20;99.90;;;;;;5019845;28;20103;-82
2024/02/21 10:14:18;;;;;;;1.05;0.50;;;10.20;99.90;;;;;;5023557;28;20056;-82
2024/02/21 10:16:47;;;;;;;1.08;0.60;;;10.10;99.90;;;;;;5042725;28;20045;-83
2024/02/21 10:19:18;;;;;;;1.90;0.70;;;10.10;99.90;;;;;;5025143;28;20045;-83
2024/02/21 10:22:00;;;;;;;3.45;0.70;;;10.10;99.90;;;;;;5024381;28;20363;-83
2024/02/21 10:24:28;;;;;;;0.35;0.32;;;10.10;99.90;;;;;;5040389;28;20049;-83
2024/02/21 10:27:08;;;;;;;0.40;0.40;;;10.10;99.90;;;;;;5023417;28;20049;-82
2024/02/21 10:29:36;;;;;;;0.88;0.43;;;10.20;99.90;;;;;;5025376;28;20125;-83
2024/02/21 10:32:13;;;;;;;0.85;0.40;;;10.10;99.90;;;;;;5006990;28;20119;-83
2024/02/21 10:34:41;;;;;;;0.40;0.40;;;10.20;99.90;;;;;;5023773;28;20159;-82
2024/02/21 10:37:10;;;;;;;1.38;0.68;;;10.20;99.90;;;;;;5006364;28;20053;-82
2024/02/21 10:39:41;;;;;;;0.63;0.50;;;10.20;99.90;;;;;;5022743;28;20057;-81
2024/02/21 10:42:11;;;;;;;1.42;0.30;;;10.20;99.90;;;;;;5021627;28;20045;-83
2024/02/21 10:44:40;;;;;;;1.30;0.52;;;10.20;99.90;;;;;;5021157;28;20064;-81
2024/02/21 10:47:09;;;;;;;0.40;0.35;;;10.30;99.90;;;;;;5019079;28;20053;-82
2024/02/21 10:49:39;;;;;;;1.13;0.32;;;10.30;99.90;;;;;;5031805;28;20060;-83
2024/02/21 10:52:13;;;;;;;0.77;0.50;;;10.30;99.90;;;;;;5023384;28;20057;-82
2024/02/21 10:54:47;;;;;;;0.65;0.40;;;10.20;99.90;;;;;;5041121;28;20099;-81
2024/02/21 10:57:15;;;;;;;0.40;0.30;;;10.30;99.90;;;;;;5026425;28;20080;-83
2024/02/21 10:59:44;;;;;;;1.75;0.43;;;10.40;99.90;;;;;;5043409;28;20060;-83
2024/02/21 11:02:12;;;;;;;1.00;0.60;;;10.40;99.90;;;;;;5041818;28;20056;-83
2024/02/21 11:04:40;;;;;;;0.80;0.45;;;10.40;99.90;;;;;;5023584;28;20124;-83
2024/02/21 11:07:08;;;;;;;0.55;0.40;;;10.40;99.90;;;;;;5041476;28;20509;-84
2024/02/21 11:09:37;;;;;;;1.25;0.35;;;10.40;99.90;;;;;;5020154;28;20132;-84
2024/02/21 11:12:05;;;;;;;0.40;0.40;;;10.50;99.90;;;;;;5023002;28;20097;-82
2024/02/21 11:14:38;;;;;;;0.50;0.38;;;10.60;99.90;;;;;;5043688;28;20094;-83
2024/02/21 11:17:26;;;;;;;0.80;0.45;;;10.50;99.90;;;;;;5011947;28;20124;-82
2024/02/21 11:19:55;;;;;;;0.30;0.30;;;10.50;99.90;;;;;;5013506;28;20049;-83
2024/02/21 11:22:24;;;;;;;1.38;0.50;;;10.60;99.90;;;;;;5028531;28;20049;-84
2024/02/21 11:24:53;;;;;;;0.20;0.20;;;10.60;99.90;;;;;;5041610;28;20079;-83
2024/02/21 11:27:26;;;;;;;0.38;0.38;;;10.60;99.90;;;;;;5044183;28;20318;-83
2024/02/21 11:29:57;;;;;;;0.40;0.40;;;10.70;99.90;;;;;;5030567;28;20117;-83
2024/02/21 11:32:25;;;;;;;0.77;0.40;;;10.70;99.90;;;;;;5026525;28;20136;-83
2024/02/21 11:34:55;;;;;;;0.50;0.50;;;10.60;99.90;;;;;;5023841;28;20514;-83
2024/02/21 11:37:25;;;;;;;1.08;0.30;;;10.60;99.90;;;;;;5047271;28;20052;-83
2024/02/21 11:39:53;;;;;;;0.40;0.40;;;10.70;99.90;;;;;;5033178;28;20099;-83
2024/02/21 11:42:19;;;;;;;0.47;0.30;;;10.70;99.90;;;;;;5030501;28;20065;-83
2024/02/21 11:44:47;;;;;;;0.68;0.32;;;10.70;99.90;;;;;;5048301;28;20056;-84
2024/02/21 11:47:14;;;;;;;0.30;0.30;;;10.70;99.90;;;;;;5048265;28;20044;-84
2024/02/21 11:49:53;;;;;;;0.40;0.40;;;10.70;99.90;;;;;;5035216;28;20510;-84
2024/02/21 11:52:25;;;;;;;0.38;0.38;;;10.70;99.90;;;;;;5021289;28;20648;-84
2024/02/21 11:54:54;;;;;;;0.73;0.40;;;10.70;99.90;;;;;;5040111;28;20081;-84
2024/02/21 11:57:23;;;;;;;0.82;0.40;;;10.70;99.90;;;;;;5034529;28;20049;-84
2024/02/21 11:59:52;;;;;;;0.75;0.50;;;10.70;99.90;;;;;;5042128;28;20056;-83
2024/02/21 12:02:26;;;;;;;1.02;0.50;;;10.70;99.90;;;;;;5046861;28;20080;-84
2024/02/21 12:04:54;;;;;;;1.88;0.45;;;10.70;99.90;;;;;;5030760;28;20045;-83
2024/02/21 12:07:28;;;;;;;0.40;0.40;;;10.70;99.90;;;;;;5030091;28;20573;-84
2024/02/21 12:09:59;;;;;;;0.68;0.55;;;10.70;99.90;;;;;;5040886;28;20156;-82
2024/02/21 12:12:27;;;;;;;0.40;0.40;;;10.70;99.90;;;;;;5044446;28;20082;-82
2024/02/21 12:15:00;;;;;;;1.55;0.45;;;10.70;99.90;;;;;;5043230;28;20177;-82
2024/02/21 12:17:28;;;;;;;0.30;0.30;;;10.70;99.90;;;;;;5025272;28;20080;-82
2024/02/21 12:19:55;;;;;;;0.57;0.45;;;10.70;99.90;;;;;;5040038;28;20045;-82
2024/02/21 12:22:21;;;;;;;0.60;0.50;;;10.70;99.90;;;;;;5024469;28;20549;-84
2024/02/21 12:24:48;;;;;;;1.60;0.40;;;10.80;99.90;;;;;;5034248;28;20154;-81
2024/02/21 12:27:15;;;;;;;0.47;0.47;;;10.80;99.90;;;;;;5040420;28;20049;-82
2024/02/21 12:29:42;;;;;;;0.40;0.40;;;10.80;99.90;;;;;;5035232;28;20057;-82
2024/02/21 12:32:09;;;;;;;0.40;0.40;;;10.80;99.90;;;;;;5034817;28;20041;-81
2024/02/21 12:34:36;;;;;;;0.40;0.40;;;10.90;99.90;;;;;;5034476;28;20049;-82
2024/02/21 12:37:19;;;;;;;0.50;0.40;;;11.00;99.90;;;;;;5032399;28;20653;-81
2024/02/21 12:39:47;;;;;;;0.40;0.40;;;11.10;99.90;;;;;;5038136;28;20121;-84
2024/02/21 12:42:14;;;;;;;0.40;0.40;;;11.10;99.90;;;;;;5043217;28;20109;-83
2024/02/21 12:44:41;;;;;;;0.70;0.57;;;11.10;99.90;;;;;;5042175;28;20133;-84
2024/02/21 12:47:09;;;;;;;1.20;0.40;;;11.10;99.90;;;;;;4991701;28;20054;-84
2024/02/21 12:49:38;;;;;;;0.65;0.55;;;11.10;99.90;;;;;;5037558;28;20063;-84
2024/02/21 12:52:11;;;;;;;0.75;0.47;;;11.10;99.90;;;;;;5046905;28;20139;-84
2024/02/21 12:54:38;;;;;;;0.47;0.30;;;11.10;99.90;;;;;;5035260;28;20103;-84
2024/02/21 12:57:05;;;;;;;0.52;0.50;;;11.20;99.90;;;;;;5043663;28;20114;-84